Time;durP1;ratioP1;P1;durP2;ratioP2;P2;SDS_P1;SDS_P2;PMS_P1;PMS_P2;Temp;Humidity;BMP_temperature;BMP_pressure;BME280_temperature;BME280_humidity;BME280_pressure;Samples;Min_cycle;Max_cycle;Signal;HPM_P1;HPM_P2
2024/01/23 00:00:45;;;;;;;23.20;4.47;;;8.50;99.90;;;;;;5064295;28;20017;-72
2024/01/23 00:03:11;;;;;;;19.35;4.05;;;8.60;99.90;;;;;;5065105;28;20024;-72
2024/01/23 00:05:36;;;;;;;22.25;4.18;;;8.50;99.90;;;;;;5064153;28;20111;-72
2024/01/23 00:08:03;;;;;;;18.05;4.43;;;8.50;99.90;;;;;;5064928;28;20081;-72
2024/01/23 00:10:29;;;;;;;19.67;3.85;;;8.50;99.90;;;;;;5064059;28;20017;-72
2024/01/23 00:12:55;;;;;;;20.55;4.75;;;8.50;99.90;;;;;;5065135;28;20024;-72
2024/01/23 00:15:21;;;;;;;28.98;5.35;;;8.50;99.90;;;;;;5064507;28;20482;-72
2024/01/23 00:17:47;;;;;;;22.63;3.90;;;8.50;99.90;;;;;;5064931;28;20032;-72
2024/01/23 00:20:12;;;;;;;24.38;4.20;;;8.50;99.90;;;;;;5064790;28;20235;-73
2024/01/23 00:22:38;;;;;;;25.38;4.28;;;8.50;99.90;;;;;;5064789;28;20638;-72
2024/01/23 00:25:04;;;;;;;27.45;4.43;;;8.50;99.90;;;;;;5064306;28;20035;-72
2024/01/23 00:27:30;;;;;;;21.77;4.57;;;8.50;99.90;;;;;;5064702;28;20024;-72
2024/01/23 00:29:55;;;;;;;25.75;4.43;;;8.50;99.90;;;;;;5064368;28;20112;-72
2024/01/23 00:32:23;;;;;;;19.63;3.97;;;8.50;99.90;;;;;;5065028;28;20390;-72
2024/01/23 00:34:49;;;;;;;25.23;4.07;;;8.40;99.90;;;;;;5064222;28;20021;-72
2024/01/23 00:37:15;;;;;;;16.75;3.63;;;8.40;99.90;;;;;;5064924;28;20046;-72
2024/01/23 00:39:41;;;;;;;17.80;4.43;;;8.40;99.90;;;;;;5063493;28;20368;-72
2024/01/23 00:42:10;;;;;;;18.65;4.93;;;8.40;99.90;;;;;;5064960;28;20020;-72
2024/01/23 00:44:36;;;;;;;23.83;3.60;;;8.40;99.90;;;;;;5066815;28;20449;-72
2024/01/23 00:47:01;;;;;;;18.77;3.83;;;8.40;99.90;;;;;;5068340;28;20034;-72
2024/01/23 00:49:27;;;;;;;22.23;4.30;;;8.40;99.90;;;;;;5067295;28;20015;-72
2024/01/23 00:51:52;;;;;;;24.77;4.68;;;8.40;99.90;;;;;;5050037;28;20062;-72
2024/01/23 00:54:18;;;;;;;21.33;4.55;;;8.40;99.90;;;;;;5067520;28;20363;-72
2024/01/23 00:56:44;;;;;;;27.17;4.35;;;8.40;99.90;;;;;;5067597;28;20078;-72
2024/01/23 00:59:12;;;;;;;24.05;4.80;;;8.40;99.90;;;;;;5068058;28;20035;-72
2024/01/23 01:01:38;;;;;;;19.13;4.20;;;8.40;99.90;;;;;;5066923;28;20161;-72
2024/01/23 01:04:04;;;;;;;23.90;3.80;;;8.40;99.90;;;;;;5067951;28;20111;-72
2024/01/23 01:06:30;;;;;;;25.92;5.00;;;8.40;99.90;;;;;;5066932;28;20028;-72
2024/01/23 01:08:56;;;;;;;18.90;4.03;;;8.40;99.90;;;;;;5067761;28;20032;-72
2024/01/23 01:11:22;;;;;;;22.67;4.40;;;8.40;99.90;;;;;;5067276;28;20024;-72
2024/01/23 01:13:48;;;;;;;22.95;4.90;;;8.40;99.90;;;;;;5067618;28;20016;-72
2024/01/23 01:16:14;;;;;;;20.92;4.75;;;8.30;99.90;;;;;;5067077;28;20472;-72
2024/01/23 01:18:40;;;;;;;18.00;4.10;;;8.30;99.90;;;;;;5067619;28;20492;-72
2024/01/23 01:21:07;;;;;;;19.80;3.67;;;8.30;99.90;;;;;;5066936;28;20032;-72
2024/01/23 01:23:34;;;;;;;24.00;5.00;;;8.30;99.90;;;;;;5067296;28;20020;-72
2024/01/23 01:26:00;;;;;;;20.58;3.72;;;8.30;99.90;;;;;;5067069;28;20028;-72
2024/01/23 01:28:25;;;;;;;23.00;4.57;;;8.30;99.90;;;;;;5067167;28;20061;-72
2024/01/23 01:30:51;;;;;;;19.02;3.90;;;8.30;99.90;;;;;;5066967;28;20012;-72
2024/01/23 01:33:17;;;;;;;21.58;4.10;;;8.30;99.90;;;;;;5067696;28;20024;-72
2024/01/23 01:35:42;;;;;;;25.67;4.88;;;8.20;99.90;;;;;;5067014;28;20024;-72
2024/01/23 01:38:08;;;;;;;21.08;4.22;;;8.20;99.90;;;;;;5067460;28;20373;-72
2024/01/23 01:40:34;;;;;;;29.33;5.50;;;8.20;99.90;;;;;;5066285;28;20043;-72
2024/01/23 01:43:00;;;;;;;29.50;5.63;;;8.10;99.90;;;;;;5067402;28;20477;-72
2024/01/23 01:45:25;;;;;;;23.23;4.03;;;8.10;99.90;;;;;;5066555;28;20290;-72
2024/01/23 01:47:52;;;;;;;29.50;4.00;;;8.10;99.90;;;;;;5066976;28;20474;-72
2024/01/23 01:50:19;;;;;;;24.02;4.10;;;8.10;99.90;;;;;;5066381;28;20025;-72
2024/01/23 01:52:44;;;;;;;18.77;3.95;;;8.10;99.90;;;;;;5066516;28;20013;-74
2024/01/23 01:55:11;;;;;;;20.45;3.97;;;8.00;99.90;;;;;;5065439;28;20047;-72
2024/01/23 01:57:39;;;;;;;22.08;4.18;;;8.00;99.90;;;;;;5066373;28;20545;-72
2024/01/23 02:00:06;;;;;;;17.98;3.70;;;8.00;99.90;;;;;;5066327;28;20111;-72
2024/01/23 02:02:32;;;;;;;20.38;3.97;;;8.00;99.90;;;;;;5066394;28;20188;-72
2024/01/23 02:04:58;;;;;;;19.15;3.97;;;7.90;99.90;;;;;;5065858;28;20021;-73
2024/01/23 02:07:23;;;;;;;17.92;3.72;;;7.90;99.90;;;;;;5066759;28;20505;-72
2024/01/23 02:09:49;;;;;;;18.58;3.90;;;7.80;99.90;;;;;;5066085;28;20078;-72
2024/01/23 02:12:15;;;;;;;23.70;4.63;;;7.80;99.90;;;;;;5066399;28;20020;-72
2024/01/23 02:14:41;;;;;;;18.95;3.67;;;7.80;99.90;;;;;;5065979;28;20024;-72
2024/01/23 02:17:07;;;;;;;22.42;4.10;;;7.80;99.90;;;;;;5066499;28;20021;-72
2024/01/23 02:19:33;;;;;;;20.88;3.47;;;7.70;99.90;;;;;;5066170;28;20078;-72
2024/01/23 02:21:58;;;;;;;20.40;4.68;;;7.70;99.90;;;;;;5066074;28;20021;-72
2024/01/23 02:24:24;;;;;;;25.52;3.83;;;7.70;99.90;;;;;;5066230;28;20031;-71
2024/01/23 02:26:50;;;;;;;20.27;4.07;;;7.70;99.90;;;;;;5065553;28;20020;-72
2024/01/23 02:29:16;;;;;;;23.30;3.80;;;7.70;99.90;;;;;;5066602;28;20036;-72
2024/01/23 02:31:42;;;;;;;21.40;3.47;;;7.70;99.90;;;;;;5065359;28;20494;-72
2024/01/23 02:34:08;;;;;;;26.52;4.60;;;7.60;99.90;;;;;;5066882;28;20405;-72
2024/01/23 02:36:39;;;;;;;26.58;5.13;;;7.60;99.90;;;;;;5065284;28;20044;-72
2024/01/23 02:39:07;;;;;;;;;;;7.60;99.90;;;;;;5066829;28;20040;-72
2024/01/23 02:41:33;;;;;;;25.65;4.88;;;7.60;99.90;;;;;;5059338;28;19991;-72
2024/01/23 02:43:59;;;;;;;20.45;4.05;;;7.50;99.90;;;;;;5034422;28;20557;-72
2024/01/23 02:46:25;;;;;;;20.70;4.63;;;7.50;99.90;;;;;;5065142;28;20467;-72
2024/01/23 02:48:51;;;;;;;20.52;4.00;;;7.50;99.90;;;;;;5066336;28;20020;-72
2024/01/23 02:51:20;;;;;;;19.42;3.70;;;7.50;99.90;;;;;;5065507;28;20420;-72
2024/01/23 02:53:46;;;;;;;25.95;5.25;;;7.60;99.90;;;;;;5065503;28;20485;-72
2024/01/23 02:56:12;;;;;;;29.05;5.28;;;7.60;99.90;;;;;;5065371;28;20025;-72
2024/01/23 02:58:40;;;;;;;22.63;4.07;;;7.60;99.90;;;;;;5065415;28;20024;-72
2024/01/23 03:01:06;;;;;;;20.45;3.65;;;7.60;99.90;;;;;;5047136;28;20485;-72
2024/01/23 03:03:32;;;;;;;22.73;4.88;;;7.60;99.90;;;;;;5065368;28;20033;-72
2024/01/23 03:05:57;;;;;;;18.10;3.65;;;7.60;99.90;;;;;;5064797;28;20203;-72
2024/01/23 03:08:23;;;;;;;21.55;4.72;;;7.60;99.90;;;;;;5065618;28;20029;-72
2024/01/23 03:10:49;;;;;;;28.63;4.65;;;7.60;99.90;;;;;;5065371;28;20052;-71
2024/01/23 03:13:15;;;;;;;26.27;4.22;;;7.60;99.90;;;;;;5065512;28;20016;-72
2024/01/23 03:15:41;;;;;;;20.38;3.92;;;7.50;99.90;;;;;;5047108;28;20470;-72
2024/01/23 03:18:06;;;;;;;20.92;3.95;;;7.60;99.90;;;;;;5065750;28;20480;-72
2024/01/23 03:20:33;;;;;;;21.48;4.13;;;7.60;99.90;;;;;;5064819;28;20428;-71
2024/01/23 03:22:59;;;;;;;25.52;4.68;;;7.60;99.90;;;;;;5065406;28;20032;-72
2024/01/23 03:25:24;;;;;;;21.10;4.47;;;7.60;99.90;;;;;;5046643;28;20111;-73
2024/01/23 03:27:51;;;;;;;29.30;4.80;;;7.60;99.90;;;;;;5065322;28;20676;-72
2024/01/23 03:30:29;;;;;;;21.00;4.32;;;7.60;99.90;;;;;;5064830;28;20017;-72
2024/01/23 03:32:55;;;;;;;28.38;4.57;;;7.60;99.90;;;;;;5065176;28;20555;-72
2024/01/23 03:35:21;;;;;;;19.20;3.83;;;7.60;99.90;;;;;;5064306;28;20414;-76
2024/01/23 03:37:47;;;;;;;20.25;4.15;;;7.60;99.90;;;;;;5065421;28;20032;-72
2024/01/23 03:40:12;;;;;;;24.45;4.32;;;7.60;99.90;;;;;;5064524;28;20041;-72
2024/01/23 03:42:38;;;;;;;16.70;3.67;;;7.60;99.90;;;;;;5064747;28;20039;-72
2024/01/23 03:45:08;;;;;;;20.88;3.60;;;7.60;99.90;;;;;;5064966;28;20036;-72
2024/01/23 03:47:34;;;;;;;27.10;4.30;;;7.60;99.90;;;;;;5065169;28;20470;-72
2024/01/23 03:50:00;;;;;;;21.52;4.70;;;7.60;99.90;;;;;;5064807;28;20024;-72
2024/01/23 03:52:26;;;;;;;27.00;4.65;;;7.60;99.90;;;;;;5046718;28;20013;-72
2024/01/23 03:54:51;;;;;;;17.67;3.40;;;7.50;99.90;;;;;;5065084;28;20456;-72
2024/01/23 03:57:18;;;;;;;25.83;4.55;;;7.60;99.90;;;;;;5064994;28;20034;-72
2024/01/23 03:59:47;;;;;;;18.60;3.33;;;7.50;99.90;;;;;;5064931;28;20048;-72
2024/01/23 04:02:12;;;;;;;19.00;3.58;;;7.50;99.90;;;;;;5064667;28;20017;-72
2024/01/23 04:04:41;;;;;;;27.65;4.72;;;7.50;99.90;;;;;;5064625;28;20024;-74
2024/01/23 04:07:07;;;;;;;22.90;4.22;;;7.50;99.90;;;;;;5064400;28;20027;-72
2024/01/23 04:09:33;;;;;;;34.85;4.82;;;7.50;99.90;;;;;;5064910;28;20043;-72
2024/01/23 04:11:58;;;;;;;20.90;4.13;;;7.50;99.90;;;;;;5064365;28;20012;-72
2024/01/23 04:14:24;;;;;;;21.92;4.00;;;7.50;99.90;;;;;;5064423;28;20025;-72
2024/01/23 04:16:49;;;;;;;18.73;4.20;;;7.50;99.90;;;;;;5064461;28;20321;-72
2024/01/23 04:19:15;;;;;;;16.05;3.38;;;7.50;99.90;;;;;;5067637;28;20087;-72
2024/01/23 04:21:41;;;;;;;24.15;3.63;;;7.50;99.90;;;;;;5067534;28;20565;-72
2024/01/23 04:24:07;;;;;;;20.65;3.72;;;7.50;99.90;;;;;;5068921;28;20020;-72
2024/01/23 04:26:33;;;;;;;27.05;5.00;;;7.40;99.90;;;;;;5067515;28;20554;-72
2024/01/23 04:28:58;;;;;;;27.52;4.53;;;7.40;99.90;;;;;;5068630;28;20031;-72
2024/01/23 04:31:25;;;;;;;19.23;3.80;;;7.40;99.90;;;;;;5067999;28;20024;-72
2024/01/23 04:33:50;;;;;;;20.67;3.90;;;7.40;99.90;;;;;;5068557;28;20023;-72
2024/01/23 04:36:19;;;;;;;19.27;3.15;;;7.30;99.90;;;;;;5068256;28;20033;-72
2024/01/23 04:38:45;;;;;;;28.27;5.45;;;7.30;99.90;;;;;;5068091;28;20029;-72
2024/01/23 04:41:11;;;;;;;19.08;3.88;;;7.30;99.90;;;;;;5067716;28;20032;-72
2024/01/23 04:43:38;;;;;;;23.02;3.83;;;7.30;99.90;;;;;;5067971;28;20025;-72
2024/01/23 04:46:05;;;;;;;23.08;3.92;;;7.30;99.90;;;;;;5068049;28;20036;-72
2024/01/23 04:48:30;;;;;;;18.10;3.85;;;7.20;99.90;;;;;;5067956;28;20099;-72
2024/01/23 04:50:56;;;;;;;22.83;4.75;;;7.20;99.90;;;;;;5068059;28;20311;-72
2024/01/23 04:53:23;;;;;;;25.95;4.38;;;7.20;99.90;;;;;;5068454;28;20509;-73
2024/01/23 04:55:48;;;;;;;24.92;4.65;;;7.20;99.90;;;;;;5067615;28;20031;-72
2024/01/23 04:58:14;;;;;;;23.23;4.97;;;7.20;99.90;;;;;;5068325;28;20021;-72
2024/01/23 05:00:39;;;;;;;24.20;4.95;;;7.20;99.90;;;;;;5067592;28;20039;-73
2024/01/23 05:03:06;;;;;;;23.77;4.43;;;7.20;99.90;;;;;;5068026;28;20535;-76
2024/01/23 05:05:31;;;;;;;28.02;4.85;;;7.20;99.90;;;;;;5067183;28;20032;-72
2024/01/23 05:07:57;;;;;;;20.08;3.83;;;7.20;99.90;;;;;;5067863;28;20470;-72
2024/01/23 05:10:23;;;;;;;26.23;4.50;;;7.20;99.90;;;;;;5067536;28;20028;-72
2024/01/23 05:12:49;;;;;;;26.40;4.55;;;7.20;99.90;;;;;;5067727;28;20013;-73
2024/01/23 05:15:14;;;;;;;24.80;5.63;;;7.20;99.90;;;;;;5067538;28;20382;-73
2024/01/23 05:17:40;;;;;;;21.13;4.63;;;7.20;99.90;;;;;;5067175;28;20289;-72
2024/01/23 05:20:07;;;;;;;24.33;4.82;;;7.20;99.90;;;;;;5067758;28;20016;-72
2024/01/23 05:22:33;;;;;;;23.27;5.07;;;7.20;99.90;;;;;;5067036;28;20027;-73
2024/01/23 05:24:58;;;;;;;26.27;5.35;;;7.20;99.90;;;;;;5067636;28;20008;-72
2024/01/23 05:27:24;;;;;;;21.38;3.85;;;7.20;99.90;;;;;;5066863;28;20375;-72
2024/01/23 05:29:50;;;;;;;25.35;4.07;;;7.20;99.90;;;;;;5066772;28;20035;-73
2024/01/23 05:32:16;;;;;;;25.80;4.18;;;7.20;99.90;;;;;;5067063;28;20025;-73
2024/01/23 05:34:42;;;;;;;19.98;4.07;;;7.20;99.90;;;;;;5067793;28;20027;-72
2024/01/23 05:37:07;;;;;;;19.88;4.15;;;7.20;99.90;;;;;;5067044;28;20037;-72
2024/01/23 05:39:39;;;;;;;17.88;3.13;;;7.20;99.90;;;;;;5068128;28;20040;-72
2024/01/23 05:42:06;;;;;;;22.88;4.38;;;7.20;99.90;;;;;;5068120;28;20082;-72
2024/01/23 05:44:32;;;;;;;20.95;4.05;;;7.20;99.90;;;;;;5067966;28;20032;-72
2024/01/23 05:46:58;;;;;;;24.48;4.03;;;7.20;99.90;;;;;;5067112;28;20056;-72
2024/01/23 05:49:24;;;;;;;19.88;3.45;;;7.20;99.90;;;;;;5066858;28;20087;-72
2024/01/23 05:51:50;;;;;;;22.73;4.70;;;7.20;99.90;;;;;;5066667;28;20429;-72
2024/01/23 05:54:15;;;;;;;21.45;4.07;;;7.20;99.90;;;;;;5066890;28;20032;-72
2024/01/23 05:56:41;;;;;;;14.48;3.22;;;7.10;99.90;;;;;;5066348;28;20024;-72
2024/01/23 05:59:06;;;;;;;19.85;3.63;;;7.20;99.90;;;;;;5066919;28;20021;-72
2024/01/23 06:01:33;;;;;;;24.30;3.67;;;7.10;99.90;;;;;;5066648;28;20119;-72
2024/01/23 06:03:59;;;;;;;25.73;4.65;;;7.10;99.90;;;;;;5066824;28;20085;-72
2024/01/23 06:06:25;;;;;;;20.67;3.50;;;7.10;99.90;;;;;;5065780;28;20028;-72
2024/01/23 06:08:51;;;;;;;26.60;4.28;;;7.10;99.90;;;;;;5066767;28;20020;-72
2024/01/23 06:11:16;;;;;;;20.13;3.90;;;7.10;99.90;;;;;;5066072;28;20031;-72
2024/01/23 06:13:42;;;;;;;27.10;4.72;;;7.00;99.90;;;;;;5066348;28;20605;-74
2024/01/23 06:16:07;;;;;;;19.40;3.70;;;7.00;99.90;;;;;;5065996;28;20033;-72
2024/01/23 06:18:35;;;;;;;28.92;4.60;;;7.00;99.90;;;;;;5066371;28;20151;-72
2024/01/23 06:21:01;;;;;;;22.63;3.90;;;7.00;99.90;;;;;;5065733;28;20649;-72
2024/01/23 06:23:27;;;;;;;16.63;3.47;;;6.90;99.90;;;;;;5066282;28;20040;-72
2024/01/23 06:25:53;;;;;;;24.42;4.22;;;6.90;99.90;;;;;;5065683;28;20071;-72
2024/01/23 06:28:18;;;;;;;22.33;3.95;;;6.90;99.90;;;;;;5066350;28;20019;-72
2024/01/23 06:30:44;;;;;;;18.08;3.75;;;6.90;99.90;;;;;;5065509;28;20074;-73
2024/01/23 06:33:09;;;;;;;24.83;4.50;;;6.80;99.90;;;;;;5065809;28;20111;-72
2024/01/23 06:35:36;;;;;;;21.63;3.10;;;6.80;99.90;;;;;;5065703;28;20028;-72
2024/01/23 06:38:02;;;;;;;24.33;4.10;;;6.70;99.90;;;;;;5065736;28;20040;-72
2024/01/23 06:40:28;;;;;;;21.73;4.10;;;6.70;99.90;;;;;;5064965;28;20040;-72
2024/01/23 06:42:53;;;;;;;22.17;5.05;;;6.70;99.90;;;;;;5065549;28;20035;-71
2024/01/23 06:45:19;;;;;;;25.05;5.10;;;6.70;99.90;;;;;;5065609;28;20149;-71
2024/01/23 06:47:45;;;;;;;27.83;4.55;;;6.60;99.90;;;;;;5065080;28;20127;-74
2024/01/23 06:50:11;;;;;;;23.90;4.72;;;6.60;99.90;;;;;;5065981;28;20877;-73
2024/01/23 06:52:37;;;;;;;26.17;4.50;;;6.50;99.90;;;;;;5046859;28;20020;-73
2024/01/23 06:55:03;;;;;;;22.52;4.18;;;6.50;99.90;;;;;;5046835;28;20027;-74
2024/01/23 06:57:28;;;;;;;22.98;4.38;;;6.50;99.90;;;;;;5065016;28;20020;-72
2024/01/23 06:59:54;;;;;;;23.73;4.03;;;6.50;99.90;;;;;;5065422;28;20489;-74
2024/01/23 07:02:19;;;;;;;29.23;4.25;;;6.50;99.90;;;;;;5062800;28;20615;-73
2024/01/23 07:04:45;;;;;;;22.58;3.72;;;6.50;99.90;;;;;;5060580;28;20048;-74
2024/01/23 07:07:11;;;;;;;25.05;4.00;;;6.50;99.90;;;;;;5055850;28;20259;-73
2024/01/23 07:09:36;;;;;;;22.67;4.13;;;6.40;99.90;;;;;;5064268;28;20099;-74
2024/01/23 07:12:02;;;;;;;24.70;4.90;;;6.40;99.90;;;;;;5046348;28;20021;-73
2024/01/23 07:14:28;;;;;;;18.85;3.95;;;6.40;99.90;;;;;;5060000;28;20055;-74
2024/01/23 07:16:53;;;;;;;21.45;3.88;;;6.40;99.90;;;;;;5052920;28;20430;-73
2024/01/23 07:19:19;;;;;;;24.67;5.53;;;6.40;99.90;;;;;;5065734;28;20029;-74
2024/01/23 07:21:45;;;;;;;24.42;4.35;;;6.40;99.90;;;;;;5061325;28;20096;-73
2024/01/23 07:24:11;;;;;;;19.85;4.85;;;6.40;99.90;;;;;;5056416;28;20036;-73
2024/01/23 07:26:36;;;;;;;27.65;4.32;;;6.30;99.90;;;;;;5064302;28;20300;-72
2024/01/23 07:29:03;;;;;;;26.38;3.95;;;6.30;99.90;;;;;;5065488;28;20021;-73
2024/01/23 07:31:29;;;;;;;26.52;3.70;;;6.30;99.90;;;;;;5032527;28;20056;-71
2024/01/23 07:33:55;;;;;;;21.05;4.07;;;6.30;99.90;;;;;;5065162;28;20020;-72
2024/01/23 07:36:21;;;;;;;20.88;3.95;;;6.30;99.90;;;;;;5059846;28;20352;-71
2024/01/23 07:38:46;;;;;;;18.13;3.28;;;6.30;99.90;;;;;;5060470;28;20410;-71
2024/01/23 07:41:12;;;;;;;23.40;3.88;;;6.30;99.90;;;;;;5059820;28;20060;-72
2024/01/23 07:43:38;;;;;;;25.42;4.25;;;6.30;99.90;;;;;;5061852;28;20048;-72
2024/01/23 07:46:04;;;;;;;22.63;4.22;;;6.30;99.90;;;;;;5059411;28;20033;-72
2024/01/23 07:48:29;;;;;;;22.42;4.40;;;6.30;99.90;;;;;;5059913;28;20396;-73
2024/01/23 07:50:55;;;;;;;31.90;5.07;;;6.30;99.90;;;;;;5057735;28;20060;-72
2024/01/23 07:53:21;;;;;;;23.08;4.88;;;6.30;99.90;;;;;;5061310;28;20032;-72
2024/01/23 07:55:46;;;;;;;31.42;4.90;;;6.30;99.90;;;;;;5068807;28;20028;-72
2024/01/23 07:58:13;;;;;;;25.13;4.57;;;6.30;99.90;;;;;;5069182;28;20032;-72
2024/01/23 08:00:41;;;;;;;26.70;4.70;;;6.30;99.90;;;;;;5068763;28;20024;-72
2024/01/23 08:03:07;;;;;;;18.13;3.97;;;6.30;99.90;;;;;;5058571;28;20052;-75
2024/01/23 08:05:33;;;;;;;30.63;5.20;;;6.30;99.90;;;;;;5063623;28;20045;-72
2024/01/23 08:08:00;;;;;;;22.52;3.67;;;6.30;99.90;;;;;;5065690;28;20103;-72
2024/01/23 08:10:25;;;;;;;20.33;3.78;;;6.30;99.90;;;;;;5059737;28;20550;-72
2024/01/23 08:12:51;;;;;;;21.55;3.50;;;6.30;99.90;;;;;;5057738;28;20459;-72
2024/01/23 08:15:20;;;;;;;26.80;4.03;;;6.40;99.90;;;;;;5063081;28;20075;-74
2024/01/23 08:17:45;;;;;;;23.33;3.75;;;6.40;99.90;;;;;;5061514;28;20188;-72
2024/01/23 08:20:12;;;;;;;24.73;4.38;;;6.30;99.90;;;;;;5054844;28;20051;-71
2024/01/23 08:22:38;;;;;;;28.98;4.22;;;6.40;99.90;;;;;;5065393;28;20378;-72
2024/01/23 08:25:04;;;;;;;29.25;5.97;;;6.30;99.90;;;;;;5061918;28;20024;-72
2024/01/23 08:27:30;;;;;;;25.67;4.50;;;6.40;99.90;;;;;;5064305;28;20503;-72
2024/01/23 08:29:55;;;;;;;20.58;4.00;;;6.40;99.90;;;;;;5047966;28;20174;-73
2024/01/23 08:32:21;;;;;;;25.67;5.07;;;6.40;99.90;;;;;;5049418;28;20077;-72
2024/01/23 08:34:47;;;;;;;27.63;4.80;;;6.40;99.90;;;;;;5068274;28;20024;-73
2024/01/23 08:37:14;;;;;;;28.13;4.78;;;6.50;99.90;;;;;;5068441;28;20527;-76
2024/01/23 08:39:40;;;;;;;30.40;5.50;;;6.40;99.90;;;;;;5067937;28;20040;-73
2024/01/23 08:42:06;;;;;;;34.47;5.35;;;6.50;99.90;;;;;;5059380;28;20031;-71
2024/01/23 08:44:31;;;;;;;24.63;4.05;;;6.50;99.90;;;;;;5061094;28;20378;-71
2024/01/23 08:46:57;;;;;;;24.15;3.92;;;6.50;99.90;;;;;;5066990;28;20497;-71
2024/01/23 08:49:23;;;;;;;22.42;3.72;;;6.50;99.90;;;;;;5052912;28;20111;-71
2024/01/23 08:51:48;;;;;;;25.00;4.28;;;6.60;99.90;;;;;;5035639;28;20024;-71
2024/01/23 08:54:18;;;;;;;25.02;4.82;;;6.60;99.90;;;;;;5061583;28;20486;-71
2024/01/23 08:56:46;;;;;;;25.08;4.72;;;6.70;99.90;;;;;;5063915;28;20431;-71
2024/01/23 08:59:11;;;;;;;26.85;5.25;;;6.70;99.90;;;;;;5065803;28;20035;-71
2024/01/23 09:01:37;;;;;;;22.33;4.25;;;6.70;99.90;;;;;;5063205;28;20028;-72
2024/01/23 09:04:03;;;;;;;24.70;4.57;;;6.80;99.90;;;;;;5059078;28;20036;-71
2024/01/23 09:06:28;;;;;;;26.67;3.78;;;6.80;99.90;;;;;;5063843;28;20028;-71
2024/01/23 09:08:54;;;;;;;22.23;4.53;;;6.90;99.90;;;;;;5068092;28;20165;-72
2024/01/23 09:11:20;;;;;;;25.55;4.55;;;6.90;99.90;;;;;;5067501;28;20103;-71
2024/01/23 09:13:47;;;;;;;21.50;4.00;;;6.90;99.90;;;;;;5067653;28;20035;-72
2024/01/23 09:16:13;;;;;;;26.65;4.53;;;7.00;99.90;;;;;;5067468;28;20039;-71
2024/01/23 09:18:40;;;;;;;29.10;5.20;;;7.00;99.90;;;;;;5055439;28;20025;-71
2024/01/23 09:21:08;;;;;;;20.63;4.32;;;7.10;99.90;;;;;;5059118;28;20560;-71
2024/01/23 09:23:37;;;;;;;26.70;5.40;;;7.10;99.90;;;;;;5051066;28;20420;-70
2024/01/23 09:26:03;;;;;;;31.60;5.50;;;7.20;99.90;;;;;;5060552;28;20275;-71
2024/01/23 09:28:29;;;;;;;24.98;4.88;;;7.20;99.90;;;;;;5065672;28;20028;-71
2024/01/23 09:30:55;;;;;;;26.42;4.20;;;7.30;99.90;;;;;;5063913;28;20098;-71
2024/01/23 09:33:20;;;;;;;29.52;5.32;;;7.40;99.90;;;;;;5066943;28;20031;-71
2024/01/23 09:35:46;;;;;;;24.95;4.50;;;7.40;99.90;;;;;;5066924;28;20028;-71
2024/01/23 09:38:12;;;;;;;28.77;4.40;;;7.40;99.90;;;;;;5062617;28;20040;-72
2024/01/23 09:40:38;;;;;;;23.58;5.60;;;7.50;99.90;;;;;;5065963;28;20426;-71
2024/01/23 09:43:04;;;;;;;20.75;3.97;;;7.50;99.90;;;;;;5064845;28;20025;-71
2024/01/23 09:45:32;;;;;;;21.33;3.67;;;7.50;99.90;;;;;;5064897;28;20055;-70
2024/01/23 09:47:58;;;;;;;21.13;4.38;;;7.60;99.90;;;;;;5064435;28;20359;-72
2024/01/23 09:50:27;;;;;;;26.80;4.72;;;7.70;99.90;;;;;;5065605;28;20083;-71
2024/01/23 09:52:53;;;;;;;25.27;3.88;;;7.80;99.90;;;;;;5050757;28;20020;-71
2024/01/23 09:55:18;;;;;;;26.85;5.07;;;7.80;99.90;;;;;;5061154;28;20032;-71
2024/01/23 09:57:45;;;;;;;21.40;4.20;;;7.90;99.90;;;;;;5066012;28;20016;-71
2024/01/23 10:00:11;;;;;;;27.17;4.75;;;8.00;99.90;;;;;;5067035;28;20345;-71
2024/01/23 10:02:39;;;;;;;27.27;5.63;;;8.00;99.90;;;;;;5065391;28;20119;-71
2024/01/23 10:05:11;;;;;;;25.08;5.40;;;8.10;99.90;;;;;;5067132;28;20020;-71
2024/01/23 10:07:38;;;;;;;24.10;4.70;;;8.10;99.90;;;;;;5066065;28;20034;-72
2024/01/23 10:10:13;;;;;;;28.70;5.28;;;8.10;99.90;;;;;;5067201;28;20016;-71
2024/01/23 10:12:40;;;;;;;24.33;5.82;;;8.10;99.90;;;;;;5066161;28;20020;-72
2024/01/23 10:15:09;;;;;;;26.52;5.13;;;8.20;99.90;;;;;;5053125;28;20017;-72
2024/01/23 10:17:35;;;;;;;27.65;5.53;;;8.20;99.90;;;;;;5065165;28;20466;-72
2024/01/23 10:20:01;;;;;;;19.55;4.75;;;8.20;99.90;;;;;;5066834;28;20130;-71
2024/01/23 10:22:27;;;;;;;27.20;4.72;;;8.30;99.90;;;;;;5065650;28;20047;-72
2024/01/23 10:24:52;;;;;;;19.63;4.10;;;8.40;99.90;;;;;;5066441;28;20484;-72
2024/01/23 10:27:18;;;;;;;30.90;5.50;;;8.40;99.90;;;;;;5060532;28;20093;-71
2024/01/23 10:29:44;;;;;;;27.60;5.32;;;8.40;99.90;;;;;;5056678;28;20136;-72
2024/01/23 10:32:10;;;;;;;22.83;5.15;;;8.50;99.90;;;;;;5066019;28;20550;-72
2024/01/23 10:34:35;;;;;;;23.70;4.53;;;8.50;99.90;;;;;;5066447;28;20381;-72
2024/01/23 10:37:01;;;;;;;25.13;5.40;;;8.60;99.90;;;;;;5065782;28;20482;-72
2024/01/23 10:39:27;;;;;;;27.42;5.05;;;8.70;99.90;;;;;;5066077;28;20044;-72
2024/01/23 10:41:53;;;;;;;27.88;5.35;;;8.70;99.90;;;;;;5066039;28;20093;-72
2024/01/23 10:44:23;;;;;;;32.20;5.13;;;8.70;99.90;;;;;;5066469;28;20038;-72
2024/01/23 10:46:50;;;;;;;25.77;7.13;;;8.80;99.90;;;;;;5060438;28;20040;-75
2024/01/23 10:49:16;;;;;;;34.88;5.80;;;8.80;99.90;;;;;;5066315;28;20100;-72
2024/01/23 10:51:47;;;;;;;23.50;5.03;;;8.80;99.90;;;;;;5065530;28;20111;-72
2024/01/23 10:54:33;;;;;;;;;;;8.90;99.90;;;;;;5066168;28;20073;-72
2024/01/23 10:57:04;;;;;;;26.00;5.18;;;8.90;99.90;;;;;;5064652;28;19908;-72
2024/01/23 10:59:30;;;;;;;29.92;6.07;;;8.90;99.90;;;;;;5065598;28;20017;-72
2024/01/23 11:02:05;;;;;;;22.50;4.78;;;9.00;99.90;;;;;;5065067;28;20028;-71
2024/01/23 11:04:31;;;;;;;25.05;5.57;;;8.90;99.90;;;;;;5065680;28;20020;-72
2024/01/23 11:07:20;;;;;;;22.15;4.40;;;9.00;99.90;;;;;;5065346;28;20021;-72
2024/01/23 11:10:21;;;;;;;21.65;5.00;;;8.90;99.90;;;;;;5065661;28;20571;-72
2024/01/23 11:13:05;;;;;;;26.58;5.60;;;9.00;99.90;;;;;;5033659;28;20041;-72
2024/01/23 11:15:31;;;;;;;22.20;5.65;;;9.00;99.90;;;;;;5065241;28;20501;-72
2024/01/23 11:18:25;;;;;;;25.15;4.60;;;9.00;99.90;;;;;;5065211;28;20061;-71
2024/01/23 11:21:08;;;;;;;24.67;5.15;;;9.00;99.90;;;;;;5065828;28;20032;-72
2024/01/23 11:23:45;;;;;;;22.33;5.28;;;9.00;99.90;;;;;;5060945;28;20039;-72
2024/01/23 11:26:30;;;;;;;24.25;5.30;;;8.90;99.90;;;;;;5065368;28;20035;-72
2024/01/23 11:29:04;;;;;;;19.63;4.80;;;8.90;99.90;;;;;;5053634;28;20036;-72
2024/01/23 11:31:36;;;;;;;17.38;3.88;;;9.00;99.90;;;;;;5065226;28;20082;-71
2024/01/23 11:34:39;;;;;;;24.77;5.70;;;9.00;99.90;;;;;;5062442;28;20490;-72
2024/01/23 11:37:43;;;;;;;22.70;4.63;;;9.10;99.90;;;;;;5016530;28;20413;-72
2024/01/23 11:40:36;;;;;;;28.00;4.80;;;9.20;99.90;;;;;;5065465;28;20500;-72
2024/01/23 11:43:05;;;;;;;20.52;4.82;;;9.20;99.90;;;;;;5064730;28;20564;-72
2024/01/23 11:45:34;;;;;;;22.85;6.15;;;9.20;99.90;;;;;;5064830;28;20419;-72
2024/01/23 11:48:04;;;;;;;26.95;5.78;;;9.30;99.90;;;;;;5064697;28;20031;-72
2024/01/23 11:50:35;;;;;;;17.80;4.03;;;9.40;99.90;;;;;;5065103;28;20116;-72
2024/01/23 11:53:01;;;;;;;30.45;5.22;;;9.40;99.90;;;;;;5050860;28;20071;-71
2024/01/23 11:55:28;;;;;;;23.77;4.50;;;9.50;99.90;;;;;;5064844;28;20020;-72
2024/01/23 11:57:55;;;;;;;24.80;5.32;;;9.50;99.90;;;;;;5064734;28;20488;-75
2024/01/23 12:00:22;;;;;;;30.73;5.13;;;9.50;99.90;;;;;;5065281;28;20024;-71
2024/01/23 12:02:48;;;;;;;23.67;4.50;;;9.60;99.90;;;;;;5064210;28;20020;-72
2024/01/23 12:05:14;;;;;;;25.80;4.90;;;9.60;99.90;;;;;;5065108;28;20029;-71
2024/01/23 12:07:41;;;;;;;20.50;4.97;;;9.60;99.90;;;;;;5064159;28;20075;-72
2024/01/23 12:10:08;;;;;;;22.00;4.80;;;9.60;99.90;;;;;;5064735;28;20020;-72
2024/01/23 12:12:34;;;;;;;25.33;5.65;;;9.60;99.90;;;;;;5059873;28;20020;-71
2024/01/23 12:15:00;;;;;;;22.02;4.80;;;9.60;99.90;;;;;;5061241;28;20397;-71
2024/01/23 12:17:25;;;;;;;22.48;4.93;;;9.50;99.90;;;;;;5061044;28;20453;-71
2024/01/23 12:19:51;;;;;;;21.98;4.40;;;9.50;99.90;;;;;;5054090;28;20040;-72
2024/01/23 12:22:18;;;;;;;22.98;4.35;;;9.50;99.90;;;;;;5050663;28;20480;-72
2024/01/23 12:24:44;;;;;;;26.48;5.20;;;9.40;99.90;;;;;;5056472;28;20029;-72
2024/01/23 12:27:09;;;;;;;22.77;5.25;;;9.30;99.90;;;;;;5057186;28;20029;-72
2024/01/23 12:29:36;;;;;;;27.02;5.43;;;9.30;99.90;;;;;;5057358;28;20494;-71
2024/01/23 12:32:02;;;;;;;27.30;5.65;;;9.30;99.90;;;;;;5031484;28;20103;-72
2024/01/23 12:34:31;;;;;;;28.77;6.05;;;9.30;99.90;;;;;;5060492;28;20119;-72
2024/01/23 12:37:00;;;;;;;27.25;6.43;;;9.30;99.90;;;;;;5051950;28;20032;-72
2024/01/23 12:39:30;;;;;;;26.80;5.18;;;9.30;99.90;;;;;;5056819;28;20044;-72
2024/01/23 12:41:57;;;;;;;20.77;4.53;;;9.30;99.90;;;;;;5067543;28;20157;-72
2024/01/23 12:44:23;;;;;;;24.02;4.40;;;9.40;99.90;;;;;;5059834;28;20106;-71
2024/01/23 12:46:50;;;;;;;24.80;5.57;;;9.40;99.90;;;;;;5061893;28;20486;-72